Reeds Cross Roads, North Carolina
Current Conditions -  °F | °C
As of 11:35 AM on Monday 24 Nov 2014 (Local Time) from KEXX Reporting Station
Scattered Clouds Scattered Clouds  
Wind Chill: 69°   Ceiling: Unl
Heat Index: 69°   Visibility: 10mi
Dew Point: 56°   Wind: 13mph
Humidity: 65%   Direction: 200°SSW
Pressure: 29.79"   Gusts: 20mph
Location:  35.7974°N, 80.2541°W
Report Text: KEXX 241635Z AUTO 20011G17KT 160V220 10SM SCT029 SCT033 21/14 A2979 RMK AO2 T02050136
Loading
Personal Weather Stations






























Interactive Weather Map New forecast layout! Learn more

10-Day Weather Forecast

Advertisements
Track Severe Weather on mobile